Time;durP1;ratioP1;P1;durP2;ratioP2;P2;SDS_P1;SDS_P2;PMS_P1;PMS_P2;Temp;Humidity;BMP_temperature;BMP_pressure;BME280_temperature;BME280_humidity;BME280_pressure;Samples;Min_cycle;Max_cycle;Signal;HPM_P1;HPM_P2
2021/07/23 00:04:20;;;;;;;;;9.75;8.00;;;;;25.79;100.00;101535.56;4961061;28;45760;-78
2021/07/23 00:06:46;;;;;;;;;10.50;9.00;;;;;25.68;100.00;101522.03;4963221;28;45336;-78
2021/07/23 00:09:11;;;;;;;;;8.25;8.00;;;;;25.55;100.00;101511.22;4965308;28;45259;-80
2021/07/23 00:11:36;;;;;;;;;11.25;10.00;;;;;25.49;100.00;101503.63;4963810;28;45297;-79
2021/07/23 00:14:02;;;;;;;;;11.75;11.00;;;;;25.63;100.00;101528.53;4964888;28;45386;-78
2021/07/23 00:16:27;;;;;;;;;10.00;9.00;;;;;25.46;100.00;101498.47;4965080;28;45377;-78
2021/07/23 00:18:52;;;;;;;;;9.25;8.25;;;;;25.53;100.00;101518.50;4965291;28;45337;-78
2021/07/23 00:21:18;;;;;;;;;9.25;8.25;;;;;25.42;100.00;101500.47;4963865;28;45385;-78
2021/07/23 00:23:43;;;;;;;;;9.75;9.00;;;;;25.49;100.00;101525.00;4962665;28;45250;-78
2021/07/23 00:26:13;;;;;;;;;7.75;7.75;;;;;25.38;100.00;101507.00;4963354;28;45324;-78
2021/07/23 00:28:40;;;;;;;;;10.00;8.50;;;;;25.46;100.00;101520.72;4963759;28;45389;-79
2021/07/23 00:34:27;;;;;;;;;11.00;9.00;;;;;25.31;100.00;101506.50;4964495;28;45417;-78
2021/07/23 00:36:52;;;;;;;;;9.25;9.25;;;;;25.27;100.00;101504.97;4965927;28;45412;-78
2021/07/23 00:39:17;;;;;;;;;9.50;9.50;;;;;25.19;100.00;101495.75;4965369;28;45968;-78
2021/07/23 00:41:43;;;;;;;;;10.75;8.50;;;;;24.97;100.00;101474.81;4965448;28;45405;-79
2021/07/23 00:44:08;;;;;;;;;13.25;9.25;;;;;24.92;100.00;101463.59;4961420;28;45642;-78
2021/07/23 00:46:36;;;;;;;;;9.25;9.25;;;;;25.16;100.00;101512.84;4960793;28;45626;-78
2021/07/23 00:49:02;;;;;;;;;11.25;10.75;;;;;24.92;100.00;101477.78;4962050;28;45522;-78
2021/07/23 00:51:28;;;;;;;;;12.25;11.75;;;;;24.73;100.00;101451.38;4961729;28;45278;-78
2021/07/23 00:53:54;;;;;;;;;9.00;9.00;;;;;24.98;100.00;101496.09;4960428;28;46121;-79
2021/07/23 00:56:20;;;;;;;;;10.00;9.50;;;;;24.91;100.00;101483.25;4959619;28;45598;-79
2021/07/23 00:58:46;;;;;;;;;12.00;12.00;;;;;24.88;100.00;101483.41;4960228;28;45395;-80
2021/07/23 01:04:34;;;;;;;;;11.25;10.25;;;;;24.90;100.00;101503.75;4959510;28;45761;-78
2021/07/23 01:06:59;;;;;;;;;10.75;10.00;;;;;24.79;100.00;101483.97;4941330;28;45643;-78
2021/07/23 01:09:25;;;;;;;;;11.00;9.75;;;;;24.76;100.00;101478.84;4959550;28;45350;-77
2021/07/23 01:11:51;;;;;;;;;13.50;9.50;;;;;24.54;100.00;101442.78;4959655;28;45432;-79
2021/07/23 01:14:18;;;;;;;;;10.25;10.25;;;;;24.68;100.00;101472.16;4959317;28;45511;-79
2021/07/23 01:16:44;;;;;;;;;12.75;11.00;;;;;24.71;100.00;101479.97;4959540;28;45373;-79
2021/07/23 01:19:11;;;;;;;;;12.75;11.00;;;;;24.74;100.00;101489.63;4959528;28;45306;-79
2021/07/23 01:21:39;;;;;;;;;13.50;11.75;;;;;24.64;100.00;101475.94;4959338;28;45382;-79
2021/07/23 01:24:05;;;;;;;;;8.75;8.75;;;;;24.51;100.00;101458.97;4959156;28;45773;-79
2021/07/23 01:26:31;;;;;;;;;13.25;10.50;;;;;24.59;100.00;101478.06;4959069;28;45340;-80
2021/07/23 01:28:56;;;;;;;;;12.00;10.75;;;;;24.48;100.00;101463.66;4959256;28;45395;-80
2021/07/23 01:34:43;;;;;;;;;9.50;8.00;;;;;24.47;100.00;101469.94;4958856;28;45453;-79
2021/07/23 01:37:08;;;;;;;;;11.00;11.00;;;;;24.43;100.00;101470.09;4958798;28;45425;-79
2021/07/23 01:39:34;;;;;;;;;12.25;12.00;;;;;24.44;100.00;101484.31;4942006;28;45387;-79
2021/07/23 01:42:00;;;;;;;;;13.25;12.25;;;;;24.32;100.00;101466.38;4958042;28;45395;-80
2021/07/23 01:44:25;;;;;;;;;12.00;11.75;;;;;24.24;100.00;101458.81;4941263;28;46101;-79
2021/07/23 01:46:50;;;;;;;;;11.25;10.00;;;;;24.27;100.00;101468.44;4959027;28;45346;-79
2021/07/23 01:49:16;;;;;;;;;13.00;12.25;;;;;24.18;100.00;101450.28;4958382;28;45498;-79
2021/07/23 01:51:41;;;;;;;;;12.00;10.50;;;;;24.19;100.00;101455.53;4958764;28;45397;-80
2021/07/23 01:54:08;;;;;;;;;13.25;12.50;;;;;24.05;100.00;101436.84;4958080;28;47174;-78
2021/07/23 01:56:33;;;;;;;;;11.75;10.25;;;;;24.27;100.00;101476.44;4958547;28;45457;-79
2021/07/23 01:59:00;;;;;;;;;12.25;12.00;;;;;24.06;100.00;101449.22;4958744;28;45331;-79
2021/07/23 02:04:47;;;;;;;;;11.25;10.25;;;;;24.02;100.00;101448.56;4958258;28;45443;-79
2021/07/23 02:07:12;;;;;;;;;11.75;11.25;;;;;24.08;100.00;101461.53;4958779;28;45405;-80
2021/07/23 02:09:37;;;;;;;;;16.25;13.75;;;;;24.08;100.00;101474.88;4941342;28;45458;-80
2021/07/23 02:12:03;;;;;;;;;13.00;12.50;;;;;23.79;100.00;101419.72;4958808;28;45566;-80
2021/07/23 02:14:30;;;;;;;;;16.25;11.75;;;;;23.70;100.00;101409.56;4957893;28;46537;-79
2021/07/23 02:20:17;;;;;;;;;15.25;13.00;;;;;23.87;100.00;101446.78;4958358;28;45443;-80
2021/07/23 02:22:43;;;;;;;;;13.00;11.50;;;;;23.72;100.00;101437.84;4958695;28;45455;-80
2021/07/23 02:25:08;;;;;;;;;13.00;12.25;;;;;23.73;100.00;101447.56;4958385;28;45490;-80
2021/07/23 02:27:34;;;;;;;;;13.00;12.25;;;;;23.73;100.00;101444.03;4958475;28;45488;-79
2021/07/23 02:30:01;;;;;;;;;15.75;14.50;;;;;23.30;100.00;101381.66;4958342;28;45294;-80
2021/07/23 02:32:26;;;;;;;;;13.25;11.50;;;;;23.61;100.00;101436.78;4941109;28;45369;-79
2021/07/23 02:34:51;;;;;;;;;16.25;12.75;;;;;23.68;100.00;101460.31;4957986;28;45538;-78
2021/07/23 02:37:17;;;;;;;;;15.25;13.00;;;;;23.65;100.00;101456.97;4958156;28;45298;-78
2021/07/23 02:39:42;;;;;;;;;14.00;13.00;;;;;23.57;100.00;101438.75;4958208;28;45292;-79
2021/07/23 02:42:10;;;;;;;;;14.00;10.25;;;;;23.34;100.00;101402.72;4958271;28;45302;-79
2021/07/23 02:44:36;;;;;;;;;12.50;10.50;;;;;23.43;100.00;101428.84;4957604;28;46577;-78
2021/07/23 02:50:23;;;;;;;;;11.50;11.50;;;;;23.52;100.00;101460.28;4955752;28;45515;-79
2021/07/23 02:52:48;;;;;;;;;15.50;12.00;;;;;23.47;100.00;101437.53;4959645;28;45299;-79
2021/07/23 02:55:15;;;;;;;;;11.75;11.50;;;;;23.55;100.00;101459.28;4961103;28;45450;-79
2021/07/23 02:57:40;;;;;;;;;14.00;11.25;;;;;23.50;100.00;101445.34;4960500;28;45665;-78
2021/07/23 03:00:06;;;;;;;;;12.75;11.00;;;;;23.46;100.00;101442.00;4943069;28;45383;-79
2021/07/23 03:02:34;;;;;;;;;9.00;9.00;;;;;23.46;100.00;101436.66;4960904;28;45467;-79
2021/07/23 03:04:59;;;;;;;;;17.75;14.75;;;;;23.50;100.00;101440.00;4960495;28;45613;-78
2021/07/23 03:07:25;;;;;;;;;17.00;14.00;;;;;23.45;100.00;101437.59;4960831;28;45371;-78
2021/07/23 03:09:50;;;;;;;;;15.75;12.00;;;;;23.36;100.00;101422.16;4960841;28;45298;-78
2021/07/23 03:12:16;;;;;;;;;13.75;13.00;;;;;23.34;100.00;101416.06;4960801;28;45285;-78
2021/07/23 03:14:42;;;;;;;;;12.00;11.25;;;;;23.29;100.00;101414.56;4960761;28;46300;-79
2021/07/23 03:20:28;;;;;;;;;16.00;14.50;;;;;23.37;100.00;101439.84;4960994;28;45351;-79
2021/07/23 03:22:54;;;;;;;;;13.00;12.50;;;;;23.30;100.00;101422.47;4960919;28;45453;-78
2021/07/23 03:25:19;;;;;;;;;14.50;13.25;;;;;23.24;100.00;101428.16;4960365;28;46470;-79
2021/07/23 03:27:44;;;;;;;;;13.50;13.00;;;;;23.31;100.00;101439.31;4960625;28;45349;-79
2021/07/23 03:30:10;;;;;;;;;14.75;14.50;;;;;23.19;100.00;101420.44;4960782;28;45242;-78
2021/07/23 03:32:36;;;;;;;;;15.00;13.00;;;;;23.17;100.00;101417.00;4960996;28;45489;-78
2021/07/23 03:35:01;;;;;;;;;14.25;13.00;;;;;23.15;100.00;101418.03;4960146;28;45371;-79
2021/07/23 03:37:26;;;;;;;;;14.25;13.00;;;;;22.95;100.00;101397.81;4960391;28;45599;-79
2021/07/23 03:39:52;;;;;;;;;16.00;14.75;;;;;23.17;100.00;101440.97;4960564;28;45302;-79
2021/07/23 03:42:17;;;;;;;;;17.50;14.50;;;;;23.02;100.00;101416.97;4960694;28;45440;-78
2021/07/23 03:44:42;;;;;;;;;13.75;13.50;;;;;23.13;100.00;101441.22;4960763;28;45394;-80
2021/07/23 03:50:30;;;;;;;;;17.50;14.75;;;;;22.95;100.00;101416.47;4960062;28;45249;-80
2021/07/23 03:52:55;;;;;;;;;19.75;17.00;;;;;23.00;100.00;101421.53;4960812;28;45477;-80
2021/07/23 03:55:21;;;;;;;;;11.25;11.25;;;;;22.92;100.00;101400.66;4960225;28;45383;-79
2021/07/23 03:57:46;;;;;;;;;18.00;15.00;;;;;22.77;100.00;101373.03;4960343;28;45337;-80
2021/07/23 04:00:12;;;;;;;;;17.00;15.50;;;;;22.71;100.00;101353.88;4960425;28;45306;-79
2021/07/23 04:02:37;;;;;;;;;14.50;12.25;;;;;22.82;100.00;101370.13;4960360;28;45350;-80
2021/07/23 04:05:04;;;;;;;;;15.50;14.75;;;;;22.87;100.00;101378.75;4941439;28;47982;-80
2021/07/23 04:07:31;;;;;;;;;17.00;16.00;;;;;22.84;100.00;101365.59;4960060;28;45408;-79
2021/07/23 04:09:57;;;;;;;;;15.75;14.50;;;;;22.69;100.00;101338.00;4960068;28;45435;-80
2021/07/23 04:12:22;;;;;;;;;16.25;14.25;;;;;22.76;100.00;101358.00;4960498;28;45381;-80
2021/07/23 04:14:48;;;;;;;;;17.50;15.75;;;;;22.74;100.00;101354.56;4959906;28;46041;-80
2021/07/23 04:20:34;;;;;;;;;17.25;14.00;;;;;22.64;100.00;101358.69;4959583;28;45376;-80
2021/07/23 04:23:00;;;;;;;;;16.00;14.50;;;;;22.64;100.00;101358.69;4960422;28;45409;-80
2021/07/23 04:25:25;;;;;;;;;22.25;17.25;;;;;22.71;100.00;101367.19;4959766;28;45454;-80
2021/07/23 04:27:51;;;;;;;;;16.75;16.25;;;;;22.74;100.00;101375.88;4959706;28;45456;-80
2021/07/23 04:30:17;;;;;;;;;12.75;11.75;;;;;22.29;100.00;101302.91;4959612;28;45297;-79
2021/07/23 04:32:43;;;;;;;;;17.00;16.00;;;;;22.74;100.00;101378.53;4960066;28;45368;-79
2021/07/23 04:35:09;;;;;;;;;17.25;15.50;;;;;22.50;100.00;101335.47;4959380;28;46804;-78
2021/07/23 04:37:35;;;;;;;;;18.75;16.75;;;;;22.65;100.00;101365.72;4959478;28;45659;-79
2021/07/23 04:40:05;;;;;;;;;16.75;15.75;;;;;22.41;100.00;101324.50;4959531;28;45615;-79
2021/07/23 04:42:31;;;;;;;;;18.00;15.00;;;;;22.53;100.00;101350.41;4959490;28;45435;-79
2021/07/23 04:44:56;;;;;;;;;15.25;15.00;;;;;22.52;100.00;101343.38;4959446;28;45718;-78
2021/07/23 04:50:43;;;;;;;;;16.00;15.25;;;;;22.56;100.00;101345.78;4958279;28;45309;-79
2021/07/23 04:53:08;;;;;;;;;17.25;16.00;;;;;22.62;100.00;101361.41;4959604;28;45361;-79
2021/07/23 04:55:36;;;;;;;;;18.25;15.75;;;;;22.57;100.00;101344.84;4959393;28;45383;-78
2021/07/23 04:58:01;;;;;;;;;15.00;13.00;;;;;22.67;100.00;101362.97;4959047;28;45651;-76
2021/07/23 05:00:27;;;;;;;;;16.50;15.00;;;;;22.60;100.00;101354.44;4959013;28;46171;-76
2021/07/23 05:02:53;;;;;;;;;16.00;14.25;;;;;22.51;100.00;101341.66;4959050;28;45373;-76
2021/07/23 05:05:21;;;;;;;;;18.75;16.25;;;;;22.71;100.00;101373.38;4958664;28;45418;-76
2021/07/23 05:07:46;;;;;;;;;16.75;16.00;;;;;22.71;100.00;101381.34;4958798;28;45258;-77
2021/07/23 05:10:12;;;;;;;;;20.75;18.00;;;;;22.63;100.00;101378.22;4958913;28;45326;-76
2021/07/23 05:12:38;;;;;;;;;19.75;18.25;;;;;22.71;100.00;101386.69;4958566;28;45158;-77
2021/07/23 05:15:06;;;;;;;;;20.00;15.50;;;;;22.73;100.00;101379.47;4958013;28;46453;-71
2021/07/23 05:20:53;;;;;;;;;16.75;15.00;;;;;22.75;100.00;101372.25;4958229;28;45337;-74
2021/07/23 05:23:20;;;;;;;;;15.25;13.75;;;;;22.81;100.00;101371.06;4940685;28;45575;-75
2021/07/23 05:25:45;;;;;;;;;22.75;18.25;;;;;22.84;100.00;101373.56;4958023;28;46305;-73
2021/07/23 05:28:11;;;;;;;;;17.75;17.50;;;;;22.82;100.00;101356.81;4958143;28;45397;-72
2021/07/23 05:30:36;;;;;;;;;19.25;18.00;;;;;22.89;100.00;101375.06;4957611;28;45493;-72
2021/07/23 05:33:01;;;;;;;;;20.50;17.75;;;;;22.94;100.00;101371.28;4958038;28;45375;-72
2021/07/23 05:35:27;;;;;;;;;19.50;18.50;;;;;22.87;100.00;101350.31;4940258;28;48240;-71
2021/07/23 05:37:52;;;;;;;;;20.50;18.00;;;;;22.98;100.00;101367.50;4957521;28;45461;-73
2021/07/23 05:40:18;;;;;;;;;20.50;18.25;;;;;22.98;100.00;101356.84;4940331;28;45414;-73
2021/07/23 05:42:43;;;;;;;;;20.00;19.00;;;;;23.04;100.00;101364.47;4958332;28;45446;-74
2021/07/23 05:45:09;;;;;;;;;19.75;17.75;;;;;22.98;100.00;101356.84;4957952;28;45716;-73
2021/07/23 05:50:56;;;;;;;;;21.25;19.00;;;;;23.03;100.00;101354.75;4957097;28;45381;-73
2021/07/23 05:53:21;;;;;;;;;20.25;16.75;;;;;23.09;100.00;101367.75;4957847;28;45369;-73
2021/07/23 05:55:47;;;;;;;;;23.50;18.00;;;;;23.12;100.00;101370.25;4957515;28;46588;-73
2021/07/23 05:58:12;;;;;;;;;21.75;19.00;;;;;23.16;100.00;101361.13;4957343;28;45440;-71
2021/07/23 06:00:38;;;;;;;;;17.50;16.75;;;;;23.17;100.00;101347.72;4957514;28;45373;-72
2021/07/23 06:06:25;;;;;;;;;21.50;18.00;;;;;23.32;100.00;101346.00;4957279;28;45389;-73
2021/07/23 06:08:51;;;;;;;;;20.75;19.75;;;;;23.20;100.00;101320.91;4957192;28;45411;-74
2021/07/23 06:11:16;;;;;;;;;25.25;19.25;;;;;23.36;100.00;101328.03;4957799;28;45400;-74
2021/07/23 06:13:42;;;;;;;;;22.25;19.75;;;;;23.32;100.00;101311.34;4957929;28;45400;-75
2021/07/23 06:16:11;;;;;;;;;21.75;19.50;;;;;23.45;100.00;101317.66;4956803;28;46971;-74
2021/07/23 06:18:37;;;;;;;;;18.00;17.00;;;;;23.49;100.00;101311.19;4957155;28;45590;-73
2021/07/23 06:21:02;;;;;;;;;20.25;18.50;;;;;23.52;100.00;101313.69;4957401;28;45329;-63
2021/07/23 06:23:29;;;;;;;;;19.50;17.75;;;;;23.55;100.00;101310.00;4957175;28;45386;-72
2021/07/23 06:25:54;;;;;;;;;20.00;19.00;;;;;23.62;100.00;101313.19;4957353;28;46155;-71
2021/07/23 06:28:20;;;;;;;;;20.25;19.00;;;;;23.71;100.00;101318.81;4959353;28;45407;-71
2021/07/23 06:30:45;;;;;;;;;21.25;17.50;;;;;23.78;100.00;101322.00;4960964;28;45457;-72
2021/07/23 06:36:33;;;;;;;;;20.50;19.75;;;;;23.84;100.00;101305.59;4960391;28;45395;-72
2021/07/23 06:38:58;;;;;;;;;19.25;16.50;;;;;23.83;100.00;101288.75;4960569;28;45608;-71
2021/07/23 06:41:23;;;;;;;;;20.75;19.25;;;;;23.97;100.00;101301.22;4960780;28;45373;-71
2021/07/23 06:43:49;;;;;;;;;20.50;19.00;;;;;24.02;100.00;101290.31;4960522;28;45495;-71
2021/07/23 06:46:14;;;;;;;;;18.50;17.50;;;;;24.09;100.00;101300.50;4960378;28;46210;-72
2021/07/23 06:48:39;;;;;;;;;17.00;16.00;;;;;24.15;100.00;101293.91;4960205;28;45614;-72
2021/07/23 06:51:05;;;;;;;;;22.50;19.00;;;;;24.17;100.00;101296.47;4960248;28;45433;-71
2021/07/23 06:53:30;;;;;;;;;19.75;18.00;;;;;24.16;100.00;101287.63;4960425;28;45410;-72
2021/07/23 06:55:56;;;;;;;;;16.50;15.75;;;;;24.26;100.00;101294.09;4960310;28;46316;-71
2021/07/23 06:58:21;;;;;;;;;20.50;19.75;;;;;24.20;100.00;101270.44;4960449;28;45416;-72
2021/07/23 07:00:47;;;;;;;;;18.50;17.00;;;;;24.39;100.00;101289.72;4960139;28;45432;-71
2021/07/23 07:06:35;;;;;;;;;18.50;15.75;;;;;24.58;100.00;101294.75;4960032;28;45793;-75
2021/07/23 07:09:00;;;;;;;;;19.50;18.50;;;;;24.60;100.00;101284.84;4942639;28;45695;-71
2021/07/23 07:11:25;;;;;;;;;18.75;17.25;;;;;24.69;100.00;101286.06;4960143;28;45438;-71
2021/07/23 07:13:51;;;;;;;;;18.25;17.75;;;;;24.67;100.00;101272.81;4960300;28;45380;-71
2021/07/23 07:16:16;;;;;;;;;18.75;18.50;;;;;24.77;100.00;101280.22;4959448;28;45995;-72
2021/07/23 07:18:42;;;;;;;;;19.25;18.75;;;;;24.83;100.00;101270.00;4959797;28;45549;-72
2021/07/23 07:21:07;;;;;;;;;23.75;22.00;;;;;24.95;100.00;101273.69;4960394;28;45316;-71
2021/07/23 07:23:33;;;;;;;;;18.50;17.00;;;;;24.96;100.00;101281.59;4942521;28;45540;-71
2021/07/23 07:25:58;;;;;;;;;19.50;18.00;;;;;24.97;100.00;101275.28;4959564;28;46518;-71
2021/07/23 07:28:26;;;;;;;;;20.00;19.75;;;;;24.98;100.00;101281.50;4959373;28;45474;-71
2021/07/23 07:30:52;;;;;;;;;22.50;18.00;;;;;25.09;100.00;101288.81;4960042;28;45377;-70
2021/07/23 07:36:39;;;;;;;;;18.25;17.50;;;;;25.29;100.00;101297.22;4959437;28;45417;-71
2021/07/23 07:39:05;;;;;;;;;20.50;16.75;;;;;25.30;100.00;101287.41;4959395;28;45407;-71
2021/07/23 07:41:30;;;;;;;;;20.00;19.00;;;;;25.39;100.00;101289.47;4959365;28;45274;-71
2021/07/23 07:43:56;;;;;;;;;22.75;19.00;;;;;25.47;100.00;101286.25;4959732;28;45316;-72
2021/07/23 07:46:22;;;;;;;;;25.00;21.75;;;;;25.59;100.00;101282.78;4959285;28;45704;-71
2021/07/23 07:48:47;;;;;;;;;18.75;17.50;;;;;25.71;100.00;101278.41;4959584;28;45322;-71
2021/07/23 07:51:13;;;;;;;;;18.25;16.75;;;;;25.84;100.00;101276.63;4959179;28;45424;-72
2021/07/23 07:53:38;;;;;;;;;20.50;18.75;;;;;25.99;100.00;101280.00;4959715;28;45262;-72
2021/07/23 07:56:08;;;;;;;;;18.00;16.25;;;;;26.08;100.00;101280.25;4959410;28;46347;-72
2021/07/23 07:58:33;;;;;;;;;21.75;19.50;;;;;26.17;100.00;101265.34;4958952;28;45352;-72
2021/07/23 08:00:59;;;;;;;;;21.75;19.00;;;;;26.21;100.00;101258.78;4959190;28;45335;-71
2021/07/23 08:06:48;;;;;;;;;20.00;19.00;;;;;26.38;100.00;101266.50;4958868;28;45455;-71
2021/07/23 08:09:14;;;;;;;;;22.75;21.25;;;;;26.40;100.00;101255.69;4958995;28;45315;-71
2021/07/23 08:11:40;;;;;;;;;20.00;16.75;;;;;26.59;100.00;101264.09;4959356;28;45276;-71
2021/07/23 08:14:05;;;;;;;;;21.50;20.50;;;;;26.68;100.00;101257.19;4959376;28;45441;-71
2021/07/23 08:16:31;;;;;;;;;20.25;18.50;;;;;26.85;100.00;101256.81;4958486;28;46331;-71
2021/07/23 08:18:59;;;;;;;;;22.00;20.25;;;;;26.97;100.00;101263.09;4958901;28;45426;-71
2021/07/23 08:21:25;;;;;;;;;20.50;19.25;;;;;27.03;100.00;101250.13;4941687;28;45672;-71
2021/07/23 08:23:50;;;;;;;;;22.50;21.00;;;;;27.19;100.00;101244.47;4958995;28;45396;-71
2021/07/23 08:26:16;;;;;;;;;19.25;17.00;;;;;27.29;100.00;101239.25;4959136;28;46482;-72
2021/07/23 08:28:41;;;;;;;;;19.25;17.25;;;;;27.40;100.00;101247.34;4958956;28;45377;-72
2021/07/23 08:31:06;;;;;;;;;20.75;18.25;;;;;27.45;100.00;101235.28;4958659;28;45462;-72
2021/07/23 08:36:54;;;;;;;;;18.75;17.50;;;;;27.85;100.00;101234.03;4958397;28;45804;-70
2021/07/23 08:39:19;;;;;;;;;19.75;18.00;;;;;28.04;100.00;101228.88;4958820;28;45304;-71
2021/07/23 08:41:44;;;;;;;;;17.25;15.75;;;;;28.23;100.00;101226.44;4958537;28;45334;-71
2021/07/23 08:44:14;;;;;;;;;17.25;16.75;;;;;28.47;100.00;101230.81;4959156;28;45298;-71
2021/07/23 08:46:39;;;;;;;;;18.50;17.25;;;;;28.70;100.00;101235.16;4958638;28;45531;-70
2021/07/23 08:49:05;;;;;;;;;18.75;18.50;;;;;28.84;100.00;101225.97;4958783;28;45481;-71
2021/07/23 08:51:31;;;;;;;;;19.75;18.25;;;;;28.96;100.00;101220.44;4958017;28;45292;-71
2021/07/23 08:53:57;;;;;;;;;23.50;22.25;;;;;29.06;100.00;101211.59;4958646;28;45346;-71
2021/07/23 08:56:22;;;;;;;;;18.75;17.75;;;;;29.22;100.00;101214.72;4958552;28;45313;-71
2021/07/23 08:58:47;;;;;;;;;22.25;19.25;;;;;29.26;100.00;101197.31;4940956;28;45307;-72
2021/07/23 09:01:13;;;;;;;;;20.75;19.00;;;;;29.42;100.00;101210.28;4958217;28;45265;-73
2021/07/23 09:07:12;;;;;;;;;20.00;18.00;;;;;29.54;100.00;101220.88;4958254;28;45320;-72
2021/07/23 09:09:38;;;;;;;;;15.75;15.25;;;;;29.59;100.00;101207.03;4958267;28;45347;-70
2021/07/23 09:12:04;;;;;;;;;20.75;18.75;;;;;29.68;100.00;101211.63;4958707;28;45237;-71
2021/07/23 09:14:29;;;;;;;;;18.25;17.75;;;;;29.71;100.00;101213.19;4958534;28;45595;-70
2021/07/23 09:16:55;;;;;;;;;17.00;17.00;;;;;29.73;100.00;101214.75;4957999;28;45412;-71
2021/07/23 09:19:20;;;;;;;;;20.75;18.50;;;;;29.74;100.00;101199.47;4957914;28;45387;-71
2021/07/23 09:21:46;;;;;;;;;20.75;19.25;;;;;29.77;100.00;101191.13;4958027;28;45359;-71
2021/07/23 09:24:12;;;;;;;;;21.25;19.25;;;;;29.79;100.00;101181.91;4958112;28;45532;-72
2021/07/23 09:26:44;;;;;;;;;16.50;16.50;;;;;29.95;100.00;101192.19;4957754;28;46180;-71
2021/07/23 09:29:10;;;;;;;;;21.25;19.50;;;;;30.02;100.00;101193.34;4940837;28;45424;-72
2021/07/23 09:31:36;;;;;;;;;19.75;18.00;;;;;30.09;100.00;101199.91;4958235;28;45362;-72
2021/07/23 09:38:05;;;;;;;;;22.25;20.75;;;;;30.32;100.00;101178.97;4957749;28;45638;-72
2021/07/23 09:40:43;;;;;;;;;22.25;20.50;;;;;30.55;100.00;101167.94;4957588;28;45428;-72
2021/07/23 09:43:09;;;;;;;;;20.00;19.50;;;;;31.05;100.00;101172.25;4957820;28;45479;-71
2021/07/23 09:45:35;;;;;;;;;18.25;18.25;;;;;31.45;100.00;101167.63;4958207;28;45387;-71
2021/07/23 09:48:14;;;;;;;;;20.50;19.75;;;;;31.83;100.00;101172.94;4957692;28;46345;-70
2021/07/23 09:50:44;;;;;;;;;22.50;19.75;;;;;32.14;100.00;101164.50;4957553;28;45374;-71
2021/07/23 09:53:15;;;;;;;;;18.75;16.75;;;;;32.46;100.00;101151.41;4957693;28;45397;-71
2021/07/23 09:55:43;;;;;;;;;19.75;19.75;;;;;32.94;100.00;101146.63;4958058;28;45433;-72
2021/07/23 09:58:11;;;;;;;;;18.25;16.75;;;;;33.33;95.98;101141.69;4957876;28;45444;-71
2021/07/23 10:00:39;;;;;;;;;19.25;18.00;;;;;33.57;95.01;101139.09;4957289;28;45647;-71
2021/07/23 10:03:06;;;;;;;;;21.75;19.50;;;;;33.76;92.80;101133.44;4956730;28;45314;-72
2021/07/23 10:05:37;;;;;;;;;17.25;16.50;;;;;33.96;89.95;101128.66;4957652;28;45400;-72
2021/07/23 10:08:08;;;;;;;;;19.75;18.50;;;;;34.18;89.62;101115.50;4957663;28;45620;-72
2021/07/23 10:10:37;;;;;;;;;18.75;17.00;;;;;34.31;89.76;101103.13;4957641;28;45488;-73
2021/07/23 10:13:03;;;;;;;;;18.25;17.25;;;;;34.54;86.86;101099.78;4957828;28;45312;-73
2021/07/23 10:15:29;;;;;;;;;20.00;18.75;;;;;34.64;86.68;101087.78;4957929;28;45434;-71
2021/07/23 10:17:56;;;;;;;;;19.00;19.00;;;;;34.81;84.49;101088.59;4956952;28;47623;-72
2021/07/23 10:20:21;;;;;;;;;18.75;18.00;;;;;34.59;83.18;101081.97;4957661;28;45431;-71
2021/07/23 10:22:51;;;;;;;;;18.75;17.75;;;;;34.41;82.88;101088.63;4957303;28;45533;-72
2021/07/23 10:25:17;;;;;;;;;20.00;17.25;;;;;34.15;82.69;101086.81;4957864;28;45552;-72
2021/07/23 10:27:45;;;;;;;;;19.50;19.00;;;;;33.75;83.07;101074.00;4957132;28;47400;-72
2021/07/23 10:30:35;;;;;;;;;18.00;16.75;;;;;33.43;85.01;101072.00;4957248;28;45555;-73
2021/07/23 10:33:03;;;;;;;;;19.50;18.25;;;;;33.36;86.79;101065.56;4957153;28;45318;-71
2021/07/23 10:35:30;;;;;;;;;17.25;16.75;;;;;33.54;86.67;101049.22;4957603;28;45333;-72
2021/07/23 10:37:57;;;;;;;;;18.25;16.00;;;;;33.73;86.39;101052.50;4956970;28;47098;-73
2021/07/23 10:40:32;;;;;;;;;19.00;17.00;;;;;34.32;86.18;101047.03;4957403;28;45526;-73
2021/07/23 10:42:58;;;;;;;;;17.25;16.50;;;;;35.72;82.85;101038.44;4957042;28;45681;-72
2021/07/23 10:45:40;;;;;;;;;18.00;17.25;;;;;37.53;77.83;101040.25;4957146;28;45401;-72
2021/07/23 10:48:05;;;;;;;;;18.50;18.25;;;;;39.03;72.82;101039.25;4956748;28;46442;-73
2021/07/23 10:50:33;;;;;;;;;18.75;16.75;;;;;40.27;69.56;101037.19;4956637;28;45413;-73
2021/07/23 10:53:24;;;;;;;;;18.75;17.75;;;;;41.27;66.47;101029.78;4957128;28;45316;-73
2021/07/23 10:55:50;;;;;;;;;19.50;18.00;;;;;41.91;62.13;101026.13;4956990;28;45551;-73
2021/07/23 10:58:15;;;;;;;;;18.50;17.25;;;;;42.87;58.88;101025.78;4956734;28;46305;-73
2021/07/23 11:00:51;;;;;;;;;18.50;16.75;;;;;43.79;57.13;101021.09;4956463;28;45453;-73
2021/07/23 11:03:37;;;;;;;;;16.75;15.25;;;;;44.80;49.53;101008.19;4956878;28;45405;-73
2021/07/23 11:06:17;;;;;;;;;18.00;17.50;;;;;45.64;44.67;101003.97;4957260;28;45390;-73
2021/07/23 11:08:47;;;;;;;;;13.50;13.00;;;;;46.23;42.93;100993.44;4956929;28;45523;-73
2021/07/23 11:11:14;;;;;;;;;16.50;13.75;;;;;46.77;43.59;100993.72;4956631;28;45649;-72
2021/07/23 11:13:39;;;;;;;;;18.25;17.25;;;;;47.22;42.62;100993.50;4940896;28;45410;-73
2021/07/23 11:16:19;;;;;;;;;13.50;13.25;;;;;47.78;38.16;100982.22;4960275;28;45401;-73
2021/07/23 11:18:59;;;;;;;;;14.75;13.50;;;;;48.58;37.33;100984.00;4960088;28;45805;-74
2021/07/23 11:21:34;;;;;;;;;14.25;13.75;;;;;49.44;34.61;100978.03;4960104;28;45374;-73
2021/07/23 11:23:59;;;;;;;;;15.00;14.00;;;;;49.99;32.93;100981.16;4960189;28;45336;-74
2021/07/23 11:26:25;;;;;;;;;15.00;13.50;;;;;50.15;32.79;100974.50;4959846;28;45352;-73
2021/07/23 11:28:53;;;;;;;;;16.50;14.25;;;;;50.08;29.57;100985.91;4959951;28;45416;-74
2021/07/23 11:31:36;;;;;;;;;17.00;16.75;;;;;49.39;29.41;100969.69;4959804;28;45828;-74
2021/07/23 11:34:25;;;;;;;;;14.25;13.25;;;;;47.79;30.32;100962.59;4960003;28;45373;-74
2021/07/23 11:36:52;;;;;;;;;14.50;14.50;;;;;46.44;33.39;100974.44;4959723;28;45547;-75
2021/07/23 11:39:20;;;;;;;;;17.25;16.50;;;;;45.45;33.31;100950.03;4959821;28;45493;-74
2021/07/23 11:42:05;;;;;;;;;15.25;14.50;;;;;44.33;35.01;100955.00;4959808;28;45417;-74
2021/07/23 11:44:32;;;;;;;;;14.50;13.75;;;;;43.31;37.88;100950.44;4959970;28;45249;-75
2021/07/23 11:46:57;;;;;;;;;16.25;14.50;;;;;42.78;40.27;100937.31;4959745;28;45431;-74
2021/07/23 11:49:30;;;;;;;;;16.50;15.00;;;;;42.46;41.44;100944.81;4959516;28;45338;-74
2021/07/23 11:51:55;;;;;;;;;14.50;13.75;;;;;42.09;41.95;100923.84;4959254;28;45452;-73
2021/07/23 11:54:21;;;;;;;;;14.25;13.00;;;;;42.37;42.84;100931.63;4959877;28;45343;-74
2021/07/23 11:56:46;;;;;;;;;14.50;13.00;;;;;42.51;43.46;100922.19;4959715;28;45318;-73
2021/07/23 11:59:12;;;;;;;;;12.50;12.00;;;;;42.24;42.53;100926.25;4959333;28;45387;-73
2021/07/23 12:01:39;;;;;;;;;19.50;18.00;;;;;41.66;41.91;100910.03;4959396;28;45622;-74
2021/07/23 12:04:07;;;;;;;;;16.00;15.00;;;;;41.36;44.04;100916.09;4959602;28;45517;-74
2021/07/23 12:06:33;;;;;;;;;16.75;15.50;;;;;41.02;43.73;100906.34;4959734;28;45302;-74
2021/07/23 12:09:02;;;;;;;;;15.00;14.50;;;;;41.07;44.02;100886.50;4941599;28;47725;-74
2021/07/23 12:11:32;;;;;;;;;14.00;13.00;;;;;41.04;44.45;100906.13;4959249;28;45331;-74
2021/07/23 12:14:08;;;;;;;;;17.25;15.50;;;;;40.51;46.39;100896.13;4958042;28;45330;-74